createdAt,value
2018-07-08T00:04:56.366Z,13.3
2018-07-08T00:09:56.788Z,13.3
2018-07-08T00:14:56.512Z,13.3
2018-07-08T00:19:56.304Z,13.3
2018-07-08T00:24:56.034Z,13.3
2018-07-08T00:29:56.693Z,13.3
2018-07-08T00:34:56.032Z,13.3
2018-07-08T00:39:56.810Z,13.3
2018-07-08T00:44:56.512Z,13.4
2018-07-08T00:49:56.442Z,13.4
2018-07-08T00:54:56.426Z,13.4
2018-07-08T00:59:56.356Z,13.4
2018-07-08T01:04:56.204Z,13.4
2018-07-08T01:09:56.307Z,13.4
2018-07-08T01:14:56.298Z,13.4
2018-07-08T01:19:56.270Z,13.4
2018-07-08T01:24:55.988Z,13.4
2018-07-08T01:29:56.697Z,13.4
2018-07-08T01:34:56.670Z,13.4
2018-07-08T01:39:56.606Z,13.4
2018-07-08T01:44:56.316Z,13.4
2018-07-08T01:49:55.985Z,13.4
2018-07-08T01:54:56.620Z,13.4
2018-07-08T01:59:56.296Z,13.4
2018-07-08T02:04:56.475Z,13.4
2018-07-08T02:09:56.759Z,13.4
2018-07-08T02:14:56.743Z,13.4
2018-07-08T02:19:56.580Z,13.4
2018-07-08T02:24:56.301Z,13.4
2018-07-08T02:29:56.896Z,13.4
2018-07-08T02:34:56.953Z,13.3
2018-07-08T02:39:56.552Z,13.3
2018-07-08T02:44:56.153Z,13.3
2018-07-08T02:49:56.825Z,13.3
2018-07-08T02:54:56.918Z,13.3
2018-07-08T02:59:56.507Z,13.3
2018-07-08T03:04:56.368Z,13.3
2018-07-08T03:09:56.738Z,13.3
2018-07-08T03:14:56.605Z,13.2
2018-07-08T03:19:56.389Z,13.2
2018-07-08T03:24:56.086Z,13.2
2018-07-08T03:29:56.843Z,13.2
2018-07-08T03:34:56.611Z,13.1
2018-07-08T03:39:56.248Z,13.1
2018-07-08T03:44:56.895Z,13.1
2018-07-08T03:49:56.619Z,13.1
2018-07-08T03:54:56.377Z,13
2018-07-08T03:59:57.042Z,13
2018-07-08T04:04:57.027Z,13
2018-07-08T04:09:56.603Z,13
2018-07-08T04:14:56.386Z,13
2018-07-08T04:19:56.177Z,13
2018-07-08T04:24:56.925Z,13
2018-07-08T04:29:57.086Z,13
2018-07-08T04:34:56.365Z,13
2018-07-08T04:39:56.989Z,13
2018-07-08T04:44:56.840Z,13
2018-07-08T04:49:56.615Z,13
2018-07-08T04:54:56.599Z,13
2018-07-08T04:59:56.160Z,13
2018-07-08T05:04:56.347Z,13.1
2018-07-08T05:09:56.431Z,13.1
2018-07-08T05:14:57.071Z,13.1
2018-07-08T05:19:56.686Z,13.1
2018-07-08T05:24:56.376Z,13.1
2018-07-08T05:29:57.117Z,13.1
2018-07-08T05:34:57.039Z,13.2
2018-07-08T05:39:56.642Z,13.2
2018-07-08T05:44:57.140Z,13.4
2018-07-08T05:49:56.986Z,13.4
2018-07-08T05:54:56.510Z,13.7
2018-07-08T05:59:56.301Z,13.7
2018-07-08T06:04:57.229Z,14
2018-07-08T06:09:56.868Z,14
2018-07-08T06:14:56.538Z,14.5
2018-07-08T06:19:56.355Z,14.5
2018-07-08T06:24:57.174Z,15.1
2018-07-08T06:29:56.462Z,15.1
2018-07-08T06:34:56.700Z,15.7
2018-07-08T06:39:56.782Z,15.7
2018-07-08T06:44:56.970Z,16.3
2018-07-08T06:49:57.117Z,16.3
2018-07-08T06:54:56.288Z,16.9
2018-07-08T06:59:56.590Z,16.9
2018-07-08T07:04:56.698Z,17.6
2018-07-08T07:09:56.544Z,17.6
2018-07-08T07:14:56.990Z,18.2
2018-07-08T07:19:56.846Z,18.2
2018-07-08T07:24:56.537Z,18.8
2018-07-08T07:29:57.201Z,18.8
2018-07-08T07:34:56.446Z,19.2
2018-07-08T07:39:57.184Z,19.2
2018-07-08T07:44:56.773Z,19.6
2018-07-08T07:49:56.365Z,19.6
2018-07-08T07:54:56.942Z,19.8
2018-07-08T07:59:56.572Z,19.8
2018-07-08T08:04:56.439Z,20.4
2018-07-08T08:09:56.868Z,20.4
2018-07-08T08:14:56.538Z,20.9
2018-07-08T08:19:56.399Z,20.9
2018-07-08T08:24:57.041Z,21.5
2018-07-08T08:29:56.595Z,21.5
2018-07-08T08:34:57.292Z,21.8
2018-07-08T08:39:57.383Z,21.8
2018-07-08T08:44:57.027Z,21.9
2018-07-08T08:49:56.661Z,21.9
2018-07-08T08:54:57.345Z,22.3
2018-07-08T08:59:56.983Z,22.3
2018-07-08T09:04:56.719Z,22.8
2018-07-08T09:09:56.673Z,22.8
2018-07-08T09:14:56.614Z,22.8
2018-07-08T09:19:57.324Z,22.8
2018-07-08T09:24:56.916Z,23.2
2018-07-08T09:29:56.567Z,23.2
2018-07-08T09:34:57.219Z,23.2
2018-07-08T09:39:56.923Z,23.2
2018-07-08T09:44:56.656Z,23.7
2018-07-08T09:49:57.349Z,23.7
2018-07-08T09:54:57.246Z,24.5
2018-07-08T09:59:56.843Z,24.5
2018-07-08T10:04:56.655Z,24.4
2018-07-08T10:09:57.153Z,24.4
2018-07-08T10:14:56.737Z,24.8
2018-07-08T10:19:56.774Z,24.8
2018-07-08T10:24:56.611Z,25
2018-07-08T10:29:57.337Z,25
2018-07-08T10:34:57.314Z,25.1
2018-07-08T10:39:57.159Z,25.1
2018-07-08T10:44:56.704Z,25.2
2018-07-08T10:49:57.293Z,25.2
2018-07-08T10:54:56.931Z,25.1
2018-07-08T10:59:56.596Z,25.1
2018-07-08T11:04:57.404Z,25.3
2018-07-08T11:09:57.323Z,25.3
2018-07-08T11:14:57.094Z,25.8
2018-07-08T11:19:56.792Z,25.8
2018-07-08T11:24:57.390Z,26.2
2018-07-08T11:29:57.035Z,26.2
2018-07-08T11:34:56.927Z,26.7
2018-07-08T11:39:57.607Z,26.7
2018-07-08T11:44:57.264Z,26.3
2018-07-08T11:49:57.048Z,26.3
2018-07-08T11:54:56.970Z,26.6
2018-07-08T11:59:57.601Z,26.6
2018-07-08T12:04:57.299Z,26.7
2018-07-08T12:09:55.835Z,26.7
2018-07-08T12:14:57.429Z,27.1
2018-07-08T12:19:57.124Z,27.1
2018-07-08T12:24:56.685Z,27.1
2018-07-08T12:29:57.354Z,27.1
2018-07-08T12:34:57.562Z,27.1
2018-07-08T12:39:57.352Z,27.1
2018-07-08T12:44:56.921Z,26.4
2018-07-08T12:49:57.712Z,26.4
2018-07-08T12:54:57.388Z,27.3
2018-07-08T12:59:56.956Z,27.3
2018-07-08T13:04:57.714Z,27.3
2018-07-08T13:09:57.765Z,27.3
2018-07-08T13:14:57.216Z,27.1
2018-07-08T13:19:56.890Z,27.1
2018-07-08T13:24:57.587Z,27.3
2018-07-08T13:29:57.264Z,27.3
2018-07-08T13:34:57.327Z,27.4
2018-07-08T13:39:57.063Z,27.4
2018-07-08T13:44:57.595Z,27.2
2018-07-08T13:49:57.265Z,27.2
2018-07-08T13:54:57.355Z,27.7
2018-07-08T13:59:56.937Z,27.7
2018-07-08T14:04:56.877Z,27.9
2018-07-08T14:09:57.041Z,27.9
2018-07-08T14:14:57.385Z,28.2
2018-07-08T14:19:57.136Z,28.2
2018-07-08T14:24:56.770Z,27.8
2018-07-08T14:29:57.456Z,27.8
2018-07-08T14:34:57.280Z,27.8
2018-07-08T14:39:56.952Z,27.8
2018-07-08T14:44:57.546Z,27.2
2018-07-08T14:49:57.234Z,27.2
2018-07-08T14:54:57.265Z,26.9
2018-07-08T14:59:56.781Z,26.9
2018-07-08T15:04:57.505Z,26.9
2018-07-08T15:09:57.602Z,26.9
2018-07-08T15:14:57.650Z,27.1
2018-07-08T15:19:57.351Z,27.1
2018-07-08T15:24:57.071Z,27
2018-07-08T15:29:57.729Z,27
2018-07-08T15:34:57.344Z,26.8
2018-07-08T15:39:57.044Z,26.8
2018-07-08T15:44:56.890Z,26.4
2018-07-08T15:49:57.631Z,26.4
2018-07-08T15:54:57.544Z,26.4
2018-07-08T15:59:57.255Z,26.4
2018-07-08T16:04:57.890Z,26.4
2018-07-08T16:09:57.647Z,26.4
2018-07-08T16:14:57.463Z,26.4
2018-07-08T16:19:57.265Z,26.4
2018-07-08T16:24:57.902Z,26.1
2018-07-08T16:29:57.652Z,26.1
2018-07-08T16:34:57.413Z,25.8
2018-07-08T16:39:57.058Z,25.8
2018-07-08T16:44:57.902Z,25.7
2018-07-08T16:49:57.560Z,25.7
2018-07-08T16:54:57.257Z,25.6
2018-07-08T16:59:57.843Z,25.6
2018-07-08T17:04:57.570Z,25.4
2018-07-08T17:09:57.307Z,25.4
2018-07-08T17:14:57.067Z,25.1
2018-07-08T17:19:57.830Z,25.1
2018-07-08T17:24:57.461Z,24.8
2018-07-08T17:29:57.263Z,24.8
2018-07-08T17:34:57.950Z,24.4
2018-07-08T17:39:57.726Z,24.4
2018-07-08T17:44:57.546Z,23.9
2018-07-08T17:49:57.169Z,23.9
2018-07-08T17:54:57.940Z,23.6
2018-07-08T17:59:57.658Z,23.6
2018-07-08T18:04:57.415Z,23.2
2018-07-08T18:09:57.205Z,23.2
2018-07-08T18:14:58.125Z,22.8
2018-07-08T18:19:57.843Z,22.8
2018-07-08T18:24:57.457Z,22.4
2018-07-08T18:29:57.135Z,22.4
2018-07-08T18:34:57.155Z,22.2
2018-07-08T18:39:57.867Z,22.2
2018-07-08T18:44:57.557Z,21.9
2018-07-08T18:49:57.303Z,21.9
2018-07-08T18:54:57.940Z,21.5
2018-07-08T18:59:57.651Z,21.5
2018-07-08T19:04:57.973Z,21.2
2018-07-08T19:09:57.742Z,21.2
2018-07-08T19:14:57.737Z,20.8
2018-07-08T19:19:57.466Z,20.8
2018-07-08T19:24:58.083Z,20.5
2018-07-08T19:29:57.659Z,20.5
2018-07-08T19:34:57.487Z,20.2
2018-07-08T19:39:58.165Z,20.2
2018-07-08T19:44:57.785Z,19.8
2018-07-08T19:49:57.448Z,19.8
2018-07-08T19:54:57.313Z,19.5
2018-07-08T19:59:57.954Z,19.5
2018-07-08T20:04:57.626Z,19.2
2018-07-08T20:09:57.357Z,19.2
2018-07-08T20:14:57.479Z,18.9
2018-07-08T20:19:58.157Z,18.9
2018-07-08T20:24:57.786Z,18.6
2018-07-08T20:29:57.457Z,18.6
2018-07-08T20:34:58.135Z,18.3
2018-07-08T20:39:57.869Z,18.3
2018-07-08T20:44:57.490Z,18
2018-07-08T20:49:58.108Z,18
2018-07-08T20:54:58.034Z,17.7
2018-07-08T20:59:57.787Z,17.7
2018-07-08T21:04:57.632Z,17.4
2018-07-08T21:09:58.258Z,17.4
2018-07-08T21:14:58.223Z,17.2
2018-07-08T21:19:57.908Z,17.2
2018-07-08T21:24:57.457Z,16.8
2018-07-08T21:29:58.147Z,16.8
2018-07-08T21:34:57.764Z,16.6
2018-07-08T21:39:57.528Z,16.6
2018-07-08T21:44:58.114Z,16.4
2018-07-08T21:49:57.798Z,16.4
2018-07-08T21:54:57.553Z,16.2
2018-07-08T21:59:58.181Z,16.2
2018-07-08T22:04:58.249Z,16
2018-07-08T22:09:58.078Z,16
2018-07-08T22:14:57.768Z,15.8
2018-07-08T22:19:57.481Z,15.8
2018-07-08T22:24:58.093Z,15.6
2018-07-08T22:29:57.857Z,15.6
2018-07-08T22:34:57.486Z,15.3
2018-07-08T22:39:58.186Z,15.3
2018-07-08T22:44:57.841Z,15.2
2018-07-08T22:49:57.682Z,15.2
2018-07-08T22:54:58.247Z,15
2018-07-08T22:59:57.891Z,15
2018-07-08T23:04:57.868Z,14.8
2018-07-08T23:09:57.391Z,14.8
2018-07-08T23:14:57.755Z,14.6
2018-07-08T23:19:58.418Z,14.6
2018-07-08T23:24:57.964Z,14.4
2018-07-08T23:29:57.646Z,14.4
2018-07-08T23:34:58.334Z,14.3
2018-07-08T23:39:57.920Z,14.3
2018-07-08T23:44:57.597Z,14.1
2018-07-08T23:49:58.286Z,14.1
2018-07-08T23:54:57.923Z,14
2018-07-08T23:59:57.625Z,14
